createdAt,value
2019-04-26T00:01:53.545Z,31.17
2019-04-26T00:04:26.648Z,29.27
2019-04-26T00:06:59.631Z,32.88
2019-04-26T00:09:33.183Z,31.57
2019-04-26T00:12:06.475Z,36.47
2019-04-26T00:14:55.989Z,30.35
2019-04-26T00:17:44.912Z,34.78
2019-04-26T00:20:17.110Z,31.48
2019-04-26T00:22:49.261Z,35.45
2019-04-26T00:25:21.601Z,31.65
2019-04-26T00:27:53.224Z,30.60
2019-04-26T00:30:26.106Z,33.35
2019-04-26T00:32:58.941Z,33.83
2019-04-26T00:35:30.771Z,35.23
2019-04-26T00:38:03.137Z,38.58
2019-04-26T00:40:35.559Z,40.58
2019-04-26T00:43:07.428Z,37.42
2019-04-26T00:45:41.603Z,39.00
2019-04-26T00:48:15.266Z,36.10
2019-04-26T00:50:48.355Z,33.48
2019-04-26T00:53:21.828Z,37.38
2019-04-26T00:55:54.828Z,43.98
2019-04-26T00:58:28.268Z,39.00
2019-04-26T01:01:00.712Z,35.38
2019-04-26T01:03:33.422Z,34.92
2019-04-26T01:06:07.541Z,32.88
2019-04-26T01:11:09.820Z,33.55
2019-04-26T01:13:41.593Z,34.92
2019-04-26T01:16:13.298Z,36.48
2019-04-26T01:18:47.011Z,36.13
2019-04-26T01:21:22.613Z,51.98
2019-04-26T01:26:33.963Z,48.48
2019-04-26T01:29:14.603Z,45.08
2019-04-26T01:32:10.081Z,41.98
2019-04-26T01:34:46.443Z,33.75
2019-04-26T01:37:19.312Z,30.40
2019-04-26T01:39:56.517Z,33.18
2019-04-26T01:42:36.434Z,35.10
2019-04-26T01:45:10.488Z,32.25
2019-04-26T01:47:42.095Z,31.90
2019-04-26T01:50:14.099Z,33.58
2019-04-26T01:52:47.295Z,28.12
2019-04-26T01:55:18.701Z,31.60
2019-04-26T01:57:50.543Z,33.23
2019-04-26T02:00:24.163Z,33.50
2019-04-26T02:02:57.296Z,31.52
2019-04-26T02:05:29.987Z,30.65
2019-04-26T02:08:01.649Z,31.15
2019-04-26T02:10:33.294Z,29.18
2019-04-26T02:13:04.756Z,29.77
2019-04-26T02:15:36.913Z,35.83
2019-04-26T02:18:08.347Z,36.40
2019-04-26T02:20:56.617Z,38.08
2019-04-26T02:23:35.341Z,36.08
2019-04-26T02:26:26.652Z,32.60
2019-04-26T02:28:59.647Z,28.92
2019-04-26T02:31:33.319Z,23.87
2019-04-26T02:34:05.388Z,37.27
2019-04-26T02:36:56.124Z,30.85
2019-04-26T02:39:17.412Z,30.15
2019-04-26T02:41:52.111Z,29.80
2019-04-26T02:44:30.893Z,33.90
2019-04-26T02:47:09.132Z,34.18
2019-04-26T02:49:43.498Z,35.55
2019-04-26T02:55:17.045Z,36.45
2019-04-26T02:57:52.688Z,31.87
2019-04-26T03:00:24.750Z,30.95
2019-04-26T03:02:59.392Z,33.13
2019-04-26T03:05:34.275Z,36.23
2019-04-26T03:08:09.678Z,34.63
2019-04-26T03:10:44.103Z,34.60
2019-04-26T03:15:58.838Z,24.37
2019-04-26T03:18:39.472Z,32.35
2019-04-26T03:21:34.195Z,31.02
2019-04-26T03:24:17.150Z,32.98
2019-04-26T03:27:06.934Z,34.43
2019-04-26T03:30:05.023Z,30.72
2019-04-26T03:32:57.853Z,28.25
2019-04-26T03:36:02.841Z,28.90
2019-04-26T03:38:51.059Z,28.17
2019-04-26T03:41:42.871Z,33.25
2019-04-26T03:44:24.257Z,28.27
2019-04-26T03:46:58.653Z,28.62
2019-04-26T03:50:02.229Z,30.15
2019-04-26T03:52:44.138Z,30.17
2019-04-26T03:55:28.224Z,31.87
2019-04-26T03:58:10.226Z,25.60
2019-04-26T04:00:47.043Z,27.65
2019-04-26T04:03:47.315Z,26.25
2019-04-26T04:06:23.401Z,25.05
2019-04-26T04:09:00.969Z,28.35
2019-04-26T04:11:43.050Z,27.73
2019-04-26T04:14:17.508Z,23.47
2019-04-26T04:17:05.691Z,19.52
2019-04-26T04:20:11.437Z,27.42
2019-04-26T04:22:49.408Z,27.40
2019-04-26T04:25:24.050Z,23.70
2019-04-26T04:27:58.552Z,25.35
2019-04-26T04:30:36.114Z,25.97
2019-04-26T04:33:26.417Z,21.45
2019-04-26T04:36:02.449Z,26.57
2019-04-26T04:38:40.852Z,30.20
2019-04-26T04:41:34.989Z,28.67
2019-04-26T04:44:13.947Z,26.05
2019-04-26T04:47:24.549Z,23.92
2019-04-26T04:50:12.726Z,31.27
2019-04-26T04:52:50.278Z,35.68
2019-04-26T04:55:37.620Z,32.23
2019-04-26T04:58:18.102Z,40.73
2019-04-26T05:01:32.638Z,28.70
2019-04-26T05:04:14.704Z,24.00
2019-04-26T05:07:05.757Z,28.75
2019-04-26T05:09:45.309Z,24.47
2019-04-26T05:12:27.554Z,30.40
2019-04-26T05:15:02.180Z,29.57
2019-04-26T05:17:42.667Z,26.93
2019-04-26T05:20:35.207Z,25.77
2019-04-26T05:23:18.746Z,27.52
2019-04-26T05:26:30.251Z,27.00
2019-04-26T05:29:18.471Z,24.60
2019-04-26T05:31:54.837Z,29.50
2019-04-26T05:34:49.018Z,24.05
2019-04-26T05:37:38.799Z,27.02
2019-04-26T05:40:19.597Z,26.10
2019-04-26T05:43:19.559Z,27.20
2019-04-26T05:46:02.365Z,30.32
2019-04-26T05:49:12.548Z,33.50
2019-04-26T05:52:18.332Z,39.13
2019-04-26T05:55:24.773Z,28.60
2019-04-26T05:58:06.652Z,37.67
2019-04-26T06:00:38.506Z,43.78
2019-04-26T06:03:24.767Z,26.90
2019-04-26T06:06:31.120Z,32.00
2019-04-26T06:09:37.078Z,34.03
2019-04-26T06:12:22.455Z,30.62
2019-04-26T06:15:08.368Z,32.20
2019-04-26T06:17:51.720Z,38.85
2019-04-26T06:20:38.293Z,35.55
2019-04-26T06:23:22.094Z,41.48
2019-04-26T06:26:29.820Z,30.67
2019-04-26T06:29:14.169Z,34.70
2019-04-26T06:31:55.919Z,33.48
2019-04-26T06:35:05.863Z,38.00
2019-04-26T06:38:05.275Z,26.87
2019-04-26T06:41:07.132Z,37.03
2019-04-26T06:44:00.353Z,33.05
2019-04-26T06:46:48.382Z,29.82
2019-04-26T06:49:33.934Z,25.00
2019-04-26T06:52:08.702Z,24.15
2019-04-26T06:54:56.397Z,25.40
2019-04-26T06:57:59.414Z,21.62
2019-04-26T07:00:54.541Z,27.90
2019-04-26T07:04:04.122Z,28.30
2019-04-26T07:07:13.551Z,41.30
2019-04-26T07:10:04.374Z,28.42
2019-04-26T07:12:59.625Z,28.42
2019-04-26T07:16:17.231Z,33.53
2019-04-26T07:18:40.742Z,31.07
2019-04-26T07:21:23.102Z,27.73
2019-04-26T07:24:20.468Z,25.90
2019-04-26T07:27:01.638Z,28.98
2019-04-26T07:30:07.246Z,26.23
2019-04-26T07:33:02.404Z,33.78
2019-04-26T07:35:50.266Z,38.38
2019-04-26T07:38:51.927Z,32.10
2019-04-26T07:41:56.129Z,27.37
2019-04-26T07:44:49.385Z,29.30
2019-04-26T07:47:51.203Z,21.95
2019-04-26T07:50:40.822Z,27.00
2019-04-26T07:53:39.324Z,24.18
2019-04-26T07:56:30.887Z,20.20
2019-04-26T07:59:45.118Z,30.40
2019-04-26T08:02:24.260Z,17.12
2019-04-26T08:05:07.462Z,18.15
2019-04-26T08:07:41.939Z,20.40
2019-04-26T08:10:19.504Z,25.72
2019-04-26T08:12:57.114Z,21.68
2019-04-26T08:15:45.218Z,22.73
2019-04-26T08:18:37.085Z,25.05
2019-04-26T08:21:23.617Z,21.27
2019-04-26T08:23:59.926Z,25.65
2019-04-26T08:26:34.770Z,21.12
2019-04-26T08:29:08.477Z,20.52
2019-04-26T08:31:42.840Z,20.92
2019-04-26T08:34:20.630Z,24.40
2019-04-26T08:36:57.408Z,21.57
2019-04-26T08:39:46.407Z,17.52
2019-04-26T08:42:23.789Z,19.10
2019-04-26T08:44:58.875Z,17.70
2019-04-26T08:47:36.646Z,19.07
2019-04-26T08:50:18.134Z,16.73
2019-04-26T08:52:52.497Z,18.65
2019-04-26T08:55:30.208Z,25.82
2019-04-26T08:58:06.150Z,17.95
2019-04-26T09:00:42.437Z,19.12
2019-04-26T09:03:36.003Z,16.23
2019-04-26T09:06:14.419Z,22.37
2019-04-26T09:08:49.367Z,17.82
2019-04-26T09:13:58.133Z,24.50
2019-04-26T09:16:31.657Z,16.42
2019-04-26T09:19:03.311Z,17.35
2019-04-26T09:21:38.380Z,20.82
2019-04-26T09:24:12.959Z,19.07
2019-04-26T09:26:52.685Z,21.62
2019-04-26T09:29:30.573Z,16.77
2019-04-26T09:32:02.767Z,19.73
2019-04-26T09:34:41.404Z,15.13
2019-04-26T09:37:12.029Z,16.57
2019-04-26T09:39:43.715Z,27.05
2019-04-26T09:42:22.809Z,20.62
2019-04-26T09:45:02.503Z,21.30
2019-04-26T09:47:51.126Z,23.65
2019-04-26T09:50:26.409Z,24.37
2019-04-26T09:56:02.055Z,20.60
2019-04-26T09:58:38.381Z,27.53
2019-04-26T10:01:10.674Z,24.35
2019-04-26T10:03:42.592Z,31.20
2019-04-26T10:06:15.275Z,22.67
2019-04-26T10:08:48.009Z,18.57
2019-04-26T10:11:21.601Z,23.90
2019-04-26T10:13:59.057Z,27.10
2019-04-26T10:16:49.699Z,28.75
2019-04-26T10:19:23.299Z,21.37
2019-04-26T10:21:54.990Z,27.53
2019-04-26T10:24:27.366Z,20.20
2019-04-26T10:27:03.381Z,22.13
2019-04-26T10:29:37.904Z,25.15
2019-04-26T10:32:09.584Z,21.05
2019-04-26T10:34:42.652Z,21.25
2019-04-26T10:39:45.800Z,22.93
2019-04-26T10:42:17.549Z,30.25
2019-04-26T10:44:52.039Z,26.45
2019-04-26T10:47:24.754Z,22.98
2019-04-26T10:49:58.172Z,24.07
2019-04-26T10:52:54.276Z,21.85
2019-04-26T10:55:35.019Z,20.77
2019-04-26T10:58:10.617Z,23.27
2019-04-26T11:00:52.642Z,27.48
2019-04-26T11:03:25.533Z,28.20
2019-04-26T11:05:56.964Z,23.22
2019-04-26T11:08:29.481Z,23.10
2019-04-26T11:11:01.065Z,61.68
2019-04-26T11:13:32.594Z,34.53
2019-04-26T11:16:08.546Z,21.55
2019-04-26T11:18:47.006Z,15.70
2019-04-26T11:21:22.465Z,57.45
2019-04-26T11:23:57.790Z,27.10
2019-04-26T11:26:34.795Z,27.70
2019-04-26T11:29:09.146Z,26.48
2019-04-26T11:31:42.088Z,37.58
2019-04-26T11:34:14.156Z,32.42
2019-04-26T11:36:46.060Z,27.40
2019-04-26T11:39:18.570Z,25.15
2019-04-26T11:41:51.837Z,43.85
2019-04-26T11:44:27.617Z,21.33
2019-04-26T11:46:59.424Z,35.13
2019-04-26T11:49:30.868Z,16.93
2019-04-26T11:52:04.083Z,29.10
2019-04-26T11:54:36.175Z,28.87
2019-04-26T11:57:15.030Z,36.48
2019-04-26T11:59:48.695Z,26.30
2019-04-26T12:02:24.836Z,33.95
2019-04-26T12:05:19.644Z,28.30
2019-04-26T12:08:35.404Z,27.13
2019-04-26T12:11:18.388Z,31.17
2019-04-26T12:13:42.118Z,30.05
2019-04-26T12:16:14.575Z,28.45
2019-04-26T12:18:51.155Z,78.90
2019-04-26T12:21:22.756Z,33.45
2019-04-26T12:23:55.521Z,31.50
2019-04-26T12:26:42.310Z,34.08
2019-04-26T12:29:06.482Z,29.92
2019-04-26T12:31:39.653Z,25.05
2019-04-26T12:34:14.180Z,25.23
2019-04-26T12:36:46.741Z,20.97
2019-04-26T12:39:19.407Z,20.65
2019-04-26T12:41:51.836Z,18.05
2019-04-26T12:44:25.820Z,16.23
2019-04-26T12:47:03.449Z,17.23
2019-04-26T12:49:35.507Z,18.23
2019-04-26T12:52:07.460Z,18.23
2019-04-26T12:54:42.668Z,23.95
2019-04-26T12:57:16.263Z,25.97
2019-04-26T12:59:48.393Z,16.12
2019-04-26T13:02:21.996Z,65.45
2019-04-26T13:04:53.791Z,20.75
2019-04-26T13:07:25.492Z,22.02
2019-04-26T13:10:15.243Z,18.42
2019-04-26T13:13:01.494Z,21.82
2019-04-26T13:15:59.748Z,16.90
2019-04-26T13:18:33.147Z,21.23
2019-04-26T13:21:08.046Z,19.20
2019-04-26T13:23:40.749Z,16.73
2019-04-26T13:26:12.679Z,14.75
2019-04-26T13:28:44.576Z,16.85
2019-04-26T13:31:16.056Z,23.02
2019-04-26T13:33:47.662Z,16.52
2019-04-26T13:36:25.230Z,25.75
2019-04-26T13:38:55.611Z,15.68
2019-04-26T13:41:28.060Z,16.15
2019-04-26T13:44:01.275Z,20.32
2019-04-26T13:46:38.232Z,17.37
2019-04-26T13:49:14.187Z,19.02
2019-04-26T13:51:46.911Z,17.48
2019-04-26T13:54:21.198Z,19.80
2019-04-26T13:56:51.916Z,17.95
2019-04-26T13:59:28.190Z,22.22
2019-04-26T14:02:10.958Z,19.10
2019-04-26T14:04:32.312Z,25.85
2019-04-26T14:07:04.145Z,15.63
2019-04-26T14:09:36.208Z,20.10
2019-04-26T14:12:18.169Z,37.33
2019-04-26T14:14:49.991Z,19.45
2019-04-26T14:17:21.916Z,19.57
2019-04-26T14:19:53.587Z,17.57
2019-04-26T14:22:26.701Z,18.10
2019-04-26T14:25:02.812Z,20.90
2019-04-26T14:27:37.732Z,20.20
2019-04-26T14:30:13.550Z,17.80
2019-04-26T14:32:45.238Z,19.67
2019-04-26T14:35:17.490Z,20.00
2019-04-26T14:37:51.489Z,23.65
2019-04-26T14:40:35.176Z,23.98
2019-04-26T14:43:08.448Z,20.35
2019-04-26T14:45:55.223Z,16.93
2019-04-26T14:48:20.847Z,20.05
2019-04-26T14:50:49.620Z,22.40
2019-04-26T14:53:21.551Z,19.82
2019-04-26T14:55:54.625Z,17.10
2019-04-26T14:58:30.107Z,19.20
2019-04-26T15:01:06.483Z,23.80
2019-04-26T15:03:43.110Z,25.30
2019-04-26T15:06:23.790Z,21.55
2019-04-26T15:08:55.393Z,21.82
2019-04-26T15:11:26.885Z,30.12
2019-04-26T15:14:05.775Z,20.65
2019-04-26T15:16:37.413Z,20.80
2019-04-26T15:19:14.099Z,21.62
2019-04-26T15:21:46.696Z,24.70
2019-04-26T15:24:18.392Z,19.85
2019-04-26T15:26:51.606Z,22.52
2019-04-26T15:29:28.158Z,21.97
2019-04-26T15:32:00.712Z,19.98
2019-04-26T15:34:36.203Z,16.55
2019-04-26T15:37:09.901Z,22.27
2019-04-26T15:39:50.311Z,18.85
2019-04-26T15:42:33.787Z,23.92
2019-04-26T15:45:15.152Z,22.27
2019-04-26T15:48:04.781Z,24.32
2019-04-26T15:50:53.581Z,25.40
2019-04-26T15:53:25.875Z,24.80
2019-04-26T15:55:57.357Z,24.72
2019-04-26T15:58:29.054Z,24.00
2019-04-26T16:01:10.820Z,25.48
2019-04-26T16:04:04.303Z,21.33
2019-04-26T16:06:37.362Z,16.17
2019-04-26T16:09:13.953Z,18.90
2019-04-26T16:11:50.877Z,22.65
2019-04-26T16:14:26.368Z,20.55
2019-04-26T16:17:03.115Z,21.80
2019-04-26T16:19:37.728Z,19.60
2019-04-26T16:22:11.631Z,26.82
2019-04-26T16:24:43.262Z,23.73
2019-04-26T16:27:14.873Z,17.52
2019-04-26T16:29:50.881Z,16.15
2019-04-26T16:32:29.966Z,18.45
2019-04-26T16:35:02.911Z,57.15
2019-04-26T16:37:35.308Z,25.57
2019-04-26T16:40:12.296Z,27.42
2019-04-26T16:42:44.056Z,26.95
2019-04-26T16:45:15.745Z,26.70
2019-04-26T16:47:48.862Z,22.45
2019-04-26T16:50:25.280Z,25.10
2019-04-26T16:52:55.264Z,25.32
2019-04-26T16:55:26.945Z,21.17
2019-04-26T16:57:58.528Z,20.72
2019-04-26T17:00:48.243Z,17.15
2019-04-26T17:03:08.048Z,23.32
2019-04-26T17:08:12.829Z,19.77
2019-04-26T17:10:45.442Z,22.35
2019-04-26T17:13:25.522Z,24.52
2019-04-26T17:15:58.177Z,23.98
2019-04-26T17:18:27.196Z,26.10
2019-04-26T17:20:59.917Z,27.25
2019-04-26T17:23:38.943Z,24.92
2019-04-26T17:26:33.669Z,22.80
2019-04-26T17:29:04.074Z,23.15
2019-04-26T17:31:35.652Z,21.77
2019-04-26T17:34:07.210Z,21.27
2019-04-26T17:36:38.700Z,23.85
2019-04-26T17:39:16.884Z,22.37
2019-04-26T17:41:50.787Z,24.43
2019-04-26T17:44:20.586Z,19.20
2019-04-26T17:46:56.321Z,22.20
2019-04-26T17:49:27.130Z,24.98
2019-04-26T17:52:00.342Z,20.33
2019-04-26T17:54:46.251Z,24.55
2019-04-26T17:57:09.309Z,38.73
2019-04-26T17:59:45.256Z,43.35
2019-04-26T18:02:25.853Z,42.70
2019-04-26T18:04:58.097Z,54.13
2019-04-26T18:07:42.932Z,41.95
2019-04-26T18:10:04.772Z,46.08
2019-04-26T18:12:40.718Z,39.18
2019-04-26T18:15:12.524Z,43.08
2019-04-26T18:17:45.255Z,43.87
2019-04-26T18:20:24.286Z,45.55
2019-04-26T18:23:10.015Z,41.10
2019-04-26T18:25:44.927Z,46.35
2019-04-26T18:28:18.922Z,43.70
2019-04-26T18:30:50.566Z,36.90
2019-04-26T18:33:26.086Z,52.17
2019-04-26T18:35:58.836Z,53.63
2019-04-26T18:38:30.869Z,52.73
2019-04-26T18:41:03.879Z,51.47
2019-04-26T18:43:35.529Z,52.35
2019-04-26T18:46:09.836Z,58.02
2019-04-26T18:48:44.029Z,52.27
2019-04-26T18:53:48.897Z,56.80
2019-04-26T18:56:20.898Z,51.92
2019-04-26T18:58:55.907Z,49.67
2019-04-26T19:01:27.705Z,50.03
2019-04-26T19:04:00.282Z,51.85
2019-04-26T19:06:37.975Z,54.67
2019-04-26T19:09:09.154Z,48.60
2019-04-26T19:11:48.615Z,47.05
2019-04-26T19:14:21.870Z,40.98
2019-04-26T19:16:59.200Z,40.83
2019-04-26T19:19:32.814Z,41.80
2019-04-26T19:22:09.357Z,44.63
2019-04-26T19:24:41.929Z,40.05
2019-04-26T19:27:22.390Z,34.38
2019-04-26T19:29:51.793Z,32.03
2019-04-26T19:32:24.659Z,34.27
2019-04-26T19:34:56.463Z,30.85
2019-04-26T19:37:36.749Z,32.28
2019-04-26T19:42:42.149Z,34.78
2019-04-26T19:45:22.393Z,29.87
2019-04-26T19:48:02.332Z,38.45
2019-04-26T19:50:48.975Z,41.68
2019-04-26T19:53:21.352Z,41.55
2019-04-26T19:55:58.766Z,39.05
2019-04-26T19:58:33.863Z,38.20
2019-04-26T20:01:06.055Z,31.77
2019-04-26T20:03:40.620Z,31.35
2019-04-26T20:06:12.605Z,35.40
2019-04-26T20:08:47.956Z,32.05
2019-04-26T20:11:19.116Z,31.82
2019-04-26T20:13:55.186Z,33.10
2019-04-26T20:16:26.022Z,28.63
2019-04-26T20:18:57.912Z,26.57
2019-04-26T20:21:32.068Z,25.75
2019-04-26T20:24:05.139Z,21.80
2019-04-26T20:26:41.940Z,19.85
2019-04-26T20:29:13.678Z,21.07
2019-04-26T20:31:51.958Z,19.30
2019-04-26T20:34:23.641Z,20.65
2019-04-26T20:36:55.585Z,19.52
2019-04-26T20:39:27.472Z,22.77
2019-04-26T20:42:03.827Z,29.90
2019-04-26T20:44:48.062Z,19.55
2019-04-26T20:47:14.260Z,20.08
2019-04-26T20:49:49.664Z,40.00
2019-04-26T20:52:16.510Z,41.50
2019-04-26T20:54:51.216Z,31.73
2019-04-26T20:57:26.689Z,27.58
2019-04-26T21:00:01.521Z,23.30
2019-04-26T21:02:32.412Z,22.30
2019-04-26T21:05:11.189Z,19.75
2019-04-26T21:07:49.435Z,21.75
2019-04-26T21:10:21.993Z,25.20
2019-04-26T21:12:52.149Z,23.52
2019-04-26T21:15:24.214Z,21.52
2019-04-26T21:18:00.570Z,19.53
2019-04-26T21:20:32.739Z,18.77
2019-04-26T21:23:04.072Z,22.90
2019-04-26T21:25:37.407Z,34.63
2019-04-26T21:28:19.959Z,31.02
2019-04-26T21:31:09.229Z,36.73
2019-04-26T21:34:01.338Z,40.38
2019-04-26T21:36:40.888Z,81.47
2019-04-26T21:39:13.677Z,67.55
2019-04-26T21:41:48.455Z,64.12
2019-04-26T21:44:25.186Z,59.10
2019-04-26T21:47:03.346Z,54.33
2019-04-26T21:49:38.007Z,68.28
2019-04-26T21:52:13.638Z,66.20
2019-04-26T21:54:56.455Z,68.85
2019-04-26T21:57:35.044Z,75.47
2019-04-26T22:00:11.402Z,77.65
2019-04-26T22:02:54.110Z,84.75
2019-04-26T22:05:30.363Z,79.82
2019-04-26T22:08:01.808Z,65.32
2019-04-26T22:10:43.701Z,64.45
2019-04-26T22:13:18.204Z,51.70
2019-04-26T22:15:54.507Z,49.73
2019-04-26T22:18:26.854Z,46.95
2019-04-26T22:21:03.870Z,51.75
2019-04-26T22:23:47.576Z,56.98
2019-04-26T22:26:17.705Z,59.55
2019-04-26T22:28:53.293Z,78.57
2019-04-26T22:31:25.923Z,85.50
2019-04-26T22:33:57.513Z,80.20
2019-04-26T22:36:30.785Z,85.97
2019-04-26T22:39:04.636Z,78.65
2019-04-26T22:41:38.247Z,74.37
2019-04-26T22:44:11.593Z,68.70
2019-04-26T22:47:03.711Z,68.92
2019-04-26T22:49:41.655Z,76.55
2019-04-26T22:52:11.100Z,94.67
2019-04-26T22:54:46.412Z,92.57
2019-04-26T22:57:26.385Z,96.53
2019-04-26T22:59:58.243Z,106.40
2019-04-26T23:02:30.206Z,121.45
2019-04-26T23:05:02.100Z,120.92
2019-04-26T23:07:35.338Z,126.50
2019-04-26T23:10:08.899Z,118.57
2019-04-26T23:12:51.203Z,115.33
2019-04-26T23:15:43.146Z,104.78
2019-04-26T23:18:33.455Z,106.47
2019-04-26T23:21:14.949Z,97.88
2019-04-26T23:23:46.178Z,88.10
2019-04-26T23:26:19.819Z,85.55
2019-04-26T23:28:53.509Z,92.88
2019-04-26T23:31:27.084Z,87.05
2019-04-26T23:33:58.948Z,89.25
2019-04-26T23:36:30.731Z,95.85
2019-04-26T23:39:03.417Z,89.20
2019-04-26T23:41:41.284Z,89.95
2019-04-26T23:44:13.257Z,90.42
2019-04-26T23:46:46.342Z,92.02
2019-04-26T23:49:19.213Z,103.70
2019-04-26T23:54:28.077Z,91.67
2019-04-26T23:57:02.878Z,95.15
2019-04-26T23:59:35.217Z,89.35
